Time;durP1;ratioP1;P1;durP2;ratioP2;P2;SDS_P1;SDS_P2;PMS_P1;PMS_P2;Temp;Humidity;BMP_temperature;BMP_pressure;BME280_temperature;BME280_humidity;BME280_pressure;Samples;Min_cycle;Max_cycle;Signal;HPM_P1;HPM_P2
2021/09/19 04:01:39;;;;;;;9.50;8.80;;;13.30;99.90;;;;;;5384119;23;20493;-68
2021/09/19 04:04:06;;;;;;;10.80;10.00;;;13.30;99.90;;;;;;4976238;28;20916;-68
2021/09/19 04:06:32;;;;;;;10.10;9.30;;;13.30;99.90;;;;;;4975956;28;20450;-68
2021/09/19 04:08:59;;;;;;;10.17;9.47;;;13.30;99.90;;;;;;4976102;28;20481;-68
2021/09/19 04:11:26;;;;;;;9.27;8.60;;;13.30;99.90;;;;;;4979896;28;20497;-68
2021/09/19 04:13:52;;;;;;;9.37;8.57;;;13.30;99.90;;;;;;4979306;28;20482;-68
2021/09/19 04:16:19;;;;;;;9.80;8.90;;;13.30;99.90;;;;;;4979587;28;20461;-68
2021/09/19 04:18:47;;;;;;;11.27;9.27;;;13.30;99.90;;;;;;4979658;28;20462;-68
2021/09/19 04:21:15;;;;;;;9.23;8.50;;;13.40;99.90;;;;;;4979360;28;20479;-68
2021/09/19 04:23:42;;;;;;;9.33;8.50;;;13.40;99.90;;;;;;4978965;28;20545;-68
2021/09/19 04:26:09;;;;;;;9.10;8.40;;;13.30;99.90;;;;;;4979155;28;20451;-67
2021/09/19 04:28:35;;;;;;;8.80;8.07;;;13.40;99.90;;;;;;4979827;28;20465;-68
2021/09/19 04:31:02;;;;;;;9.00;8.40;;;13.40;99.90;;;;;;4979261;28;20482;-68
2021/09/19 04:33:29;;;;;;;8.80;8.10;;;13.40;99.90;;;;;;4979053;28;20500;-68
2021/09/19 04:35:57;;;;;;;10.17;9.23;;;13.40;99.90;;;;;;4978754;28;20964;-68
2021/09/19 04:38:23;;;;;;;9.40;8.70;;;13.40;99.90;;;;;;4979156;28;20796;-67
2021/09/19 04:40:50;;;;;;;8.83;8.03;;;13.40;99.90;;;;;;4984989;28;20486;-68
2021/09/19 04:43:17;;;;;;;9.93;9.17;;;13.30;99.90;;;;;;4989144;28;20505;-68
2021/09/19 04:45:43;;;;;;;9.43;8.73;;;13.20;99.90;;;;;;4989137;28;20493;-68
2021/09/19 04:48:10;;;;;;;9.23;8.50;;;13.20;99.90;;;;;;4987349;28;20482;-67
2021/09/19 04:50:37;;;;;;;9.20;8.50;;;13.20;99.90;;;;;;4987106;28;20474;-68
2021/09/19 04:53:05;;;;;;;9.20;8.50;;;13.20;99.90;;;;;;4987621;28;20482;-67
2021/09/19 04:55:31;;;;;;;9.57;8.67;;;13.10;99.90;;;;;;4988639;28;20539;-67
2021/09/19 04:57:58;;;;;;;10.80;9.80;;;13.10;99.90;;;;;;4987984;28;20455;-67
2021/09/19 05:00:25;;;;;;;9.07;8.27;;;13.00;99.90;;;;;;4986697;28;20450;-68
2021/09/19 05:02:52;;;;;;;8.63;7.93;;;13.10;99.90;;;;;;4983388;28;20435;-68
2021/09/19 05:05:18;;;;;;;9.20;8.57;;;13.20;99.90;;;;;;4982892;28;20961;-68
2021/09/19 05:07:45;;;;;;;8.80;7.90;;;13.20;99.90;;;;;;4981875;28;20454;-68
2021/09/19 05:10:13;;;;;;;9.87;8.97;;;13.20;99.90;;;;;;4981116;28;20462;-68
2021/09/19 05:12:40;;;;;;;8.87;8.27;;;13.10;99.90;;;;;;4985677;28;20454;-68
2021/09/19 05:15:08;;;;;;;9.03;8.20;;;13.20;99.90;;;;;;4998599;28;20431;-69
2021/09/19 05:17:35;;;;;;;10.23;9.30;;;13.20;99.90;;;;;;4978795;28;20461;-68
2021/09/19 05:20:02;;;;;;;9.80;9.00;;;13.10;99.90;;;;;;4986315;28;20478;-68
2021/09/19 05:22:29;;;;;;;10.47;9.67;;;13.10;99.90;;;;;;4986578;28;20485;-67
2021/09/19 05:24:55;;;;;;;8.60;8.00;;;13.00;99.90;;;;;;4981913;28;20463;-68
2021/09/19 05:27:23;;;;;;;8.90;8.20;;;12.90;99.90;;;;;;4980538;28;20454;-68
2021/09/19 05:29:50;;;;;;;8.20;7.67;;;13.00;99.90;;;;;;4979508;28;20458;-68
2021/09/19 05:32:17;;;;;;;8.87;8.07;;;13.10;99.90;;;;;;4977926;28;20481;-68
2021/09/19 05:34:43;;;;;;;8.97;8.27;;;13.10;99.90;;;;;;4978344;28;20491;-68
2021/09/19 05:37:10;;;;;;;9.13;8.43;;;13.10;99.90;;;;;;4978914;28;20462;-68
2021/09/19 05:39:37;;;;;;;8.20;7.67;;;13.10;99.90;;;;;;4978133;28;20455;-68
2021/09/19 05:42:05;;;;;;;8.20;7.50;;;13.20;99.90;;;;;;4977611;28;20481;-68
2021/09/19 05:44:34;;;;;;;8.97;8.37;;;13.30;99.90;;;;;;4977034;28;20459;-69
2021/09/19 05:47:00;;;;;;;8.70;8.00;;;13.40;99.90;;;;;;4977506;28;20474;-68
2021/09/19 05:49:27;;;;;;;8.10;7.50;;;13.40;99.90;;;;;;4977902;28;20822;-68
2021/09/19 05:51:53;;;;;;;8.60;7.90;;;13.50;99.90;;;;;;4978125;28;20839;-67
2021/09/19 05:54:20;;;;;;;7.60;7.10;;;13.60;99.90;;;;;;4978209;28;20828;-67
2021/09/19 05:56:47;;;;;;;8.00;7.50;;;13.60;99.90;;;;;;4978303;28;20455;-67
2021/09/19 05:59:14;;;;;;;8.67;8.07;;;13.70;99.90;;;;;;4978037;28;20465;-67
2021/09/19 06:01:42;;;;;;;8.30;7.70;;;13.60;99.90;;;;;;4977620;28;20489;-68
2021/09/19 06:04:08;;;;;;;9.40;8.60;;;13.50;99.90;;;;;;4978473;28;20458;-68
2021/09/19 06:06:35;;;;;;;8.20;7.60;;;13.40;99.90;;;;;;4977860;28;20961;-68
2021/09/19 06:09:02;;;;;;;7.67;7.03;;;13.60;99.90;;;;;;4978689;28;20450;-67
2021/09/19 06:11:28;;;;;;;8.40;7.60;;;13.70;99.90;;;;;;4977856;28;20482;-68
2021/09/19 06:13:55;;;;;;;8.00;7.20;;;13.80;99.90;;;;;;4977485;28;20482;-68
2021/09/19 06:16:22;;;;;;;7.33;6.83;;;14.30;99.90;;;;;;4990774;28;20454;-69
2021/09/19 06:18:50;;;;;;;8.10;7.47;;;14.90;99.90;;;;;;4991364;28;20455;-69
2021/09/19 06:21:16;;;;;;;6.73;6.20;;;15.30;99.90;;;;;;4987510;28;20471;-69
2021/09/19 06:23:43;;;;;;;6.50;6.10;;;15.80;99.90;;;;;;4977620;28;20490;-69
2021/09/19 06:26:10;;;;;;;7.10;6.50;;;16.20;99.90;;;;;;4977193;28;20470;-69
2021/09/19 06:28:37;;;;;;;6.33;5.93;;;16.60;99.90;;;;;;4977308;28;20458;-69
2021/09/19 06:31:03;;;;;;;5.67;5.37;;;17.30;99.90;;;;;;4976211;28;21000;-67
2021/09/19 06:33:30;;;;;;;7.77;6.97;;;17.90;99.90;;;;;;4976376;28;20481;-67
2021/09/19 06:35:58;;;;;;;7.50;6.67;;;18.20;99.90;;;;;;4979737;28;20455;-68
2021/09/19 06:38:25;;;;;;;6.77;6.27;;;18.30;99.90;;;;;;4980574;28;20458;-67
2021/09/19 06:40:52;;;;;;;6.57;6.17;;;18.60;99.90;;;;;;4976524;28;20475;-67
2021/09/19 06:43:18;;;;;;;6.40;6.00;;;18.90;99.90;;;;;;4977493;28;20453;-68
2021/09/19 06:45:45;;;;;;;6.17;5.83;;;19.20;99.90;;;;;;4985554;28;20480;-68
2021/09/19 06:48:12;;;;;;;5.90;5.50;;;19.40;99.90;;;;;;4982447;28;20451;-69
2021/09/19 06:50:39;;;;;;;5.90;5.50;;;19.70;99.90;;;;;;4976649;28;20471;-68
2021/09/19 06:53:07;;;;;;;5.43;5.03;;;20.20;99.90;;;;;;4976165;28;20462;-68
2021/09/19 06:55:33;;;;;;;5.40;5.00;;;20.20;99.90;;;;;;4976227;28;20482;-68
2021/09/19 06:58:00;;;;;;;5.63;5.23;;;20.60;99.90;;;;;;4976920;28;20455;-68
2021/09/19 07:00:27;;;;;;;6.20;5.63;;;20.70;99.90;;;;;;4975704;28;20537;-68
2021/09/19 07:02:54;;;;;;;5.50;5.20;;;20.80;99.90;;;;;;4976059;28;20446;-69
2021/09/19 07:05:22;;;;;;;5.10;4.70;;;21.10;99.90;;;;;;4975536;28;20454;-67
2021/09/19 07:07:48;;;;;;;5.50;5.20;;;21.40;99.90;;;;;;4975801;28;20480;-69
2021/09/19 07:10:16;;;;;;;5.30;4.80;;;21.90;99.90;;;;;;4975656;28;20459;-69
2021/09/19 07:12:43;;;;;;;5.00;4.60;;;22.20;99.90;;;;;;4975636;28;20455;-68
2021/09/19 07:15:10;;;;;;;4.87;4.50;;;22.00;99.90;;;;;;4975571;28;20482;-68
2021/09/19 07:17:37;;;;;;;5.23;4.93;;;22.30;99.90;;;;;;4975455;28;20459;-70
2021/09/19 07:20:05;;;;;;;5.33;4.93;;;22.30;99.90;;;;;;4976135;28;20454;-68
2021/09/19 07:22:33;;;;;;;5.83;5.33;;;22.40;99.90;;;;;;4975813;28;20478;-70
2021/09/19 07:24:59;;;;;;;4.30;4.10;;;22.40;99.90;;;;;;4976244;28;20454;-70
2021/09/19 07:27:28;;;;;;;4.70;4.40;;;22.60;99.90;;;;;;4975924;28;20465;-73
2021/09/19 07:29:55;;;;;;;4.70;4.50;;;23.00;99.90;;;;;;4975471;28;20458;-70
2021/09/19 07:32:23;;;;;;;5.43;4.90;;;23.40;99.90;;;;;;4975257;28;20502;-71
2021/09/19 07:34:49;;;;;;;5.43;5.13;;;23.20;99.90;;;;;;4975420;28;20467;-70
2021/09/19 07:37:17;;;;;;;5.13;4.87;;;23.00;99.90;;;;;;4975465;28;20533;-72
2021/09/19 07:39:44;;;;;;;5.80;5.40;;;23.30;99.90;;;;;;4976214;28;20458;-71
2021/09/19 07:42:12;;;;;;;4.90;4.60;;;23.60;99.90;;;;;;4975644;28;20475;-69
2021/09/19 07:44:40;;;;;;;6.03;3.70;;;23.80;99.90;;;;;;4978221;28;20450;-69
2021/09/19 07:47:08;;;;;;;4.40;4.13;;;23.80;99.90;;;;;;4980558;28;20466;-69
2021/09/19 07:49:36;;;;;;;4.27;4.07;;;24.50;99.10;;;;;;4983264;28;20454;-70
2021/09/19 07:52:04;;;;;;;4.30;3.90;;;24.20;98.80;;;;;;4981593;28;20558;-69
2021/09/19 07:54:31;;;;;;;4.20;4.00;;;24.80;98.80;;;;;;4979371;28;20474;-69
2021/09/19 07:56:57;;;;;;;3.67;3.47;;;25.00;97.50;;;;;;4978666;28;20847;-69
2021/09/19 07:59:24;;;;;;;4.10;3.80;;;25.20;98.30;;;;;;4979153;28;20853;-67
2021/09/19 08:01:52;;;;;;;4.57;4.17;;;24.90;96.70;;;;;;4978490;28;20487;-70
2021/09/19 08:04:19;;;;;;;4.00;3.80;;;25.70;96.50;;;;;;4978681;28;20458;-69
2021/09/19 08:06:45;;;;;;;4.70;4.33;;;26.50;95.40;;;;;;4978416;28;20961;-70
2021/09/19 08:09:12;;;;;;;4.27;4.07;;;26.70;93.70;;;;;;4979400;28;20458;-69
2021/09/19 08:11:39;;;;;;;4.10;3.90;;;27.00;93.00;;;;;;4979481;28;20473;-69
2021/09/19 08:14:08;;;;;;;3.93;3.73;;;27.90;90.30;;;;;;4979120;28;20502;-70
2021/09/19 08:16:36;;;;;;;3.90;3.70;;;28.20;88.10;;;;;;4985676;28;20458;-69
2021/09/19 08:19:04;;;;;;;4.27;4.07;;;28.10;88.60;;;;;;4986858;28;20454;-70
2021/09/19 08:21:31;;;;;;;3.87;3.67;;;28.70;86.30;;;;;;4978864;28;20481;-69
2021/09/19 08:23:58;;;;;;;4.17;3.97;;;28.00;85.40;;;;;;4978423;28;20454;-69
2021/09/19 08:26:25;;;;;;;3.80;3.60;;;27.60;84.80;;;;;;4978554;28;20998;-69
2021/09/19 08:28:52;;;;;;;4.00;3.80;;;26.80;86.90;;;;;;4978705;28;20465;-69
2021/09/19 08:31:18;;;;;;;4.40;4.10;;;26.90;87.80;;;;;;4978511;28;20482;-69
2021/09/19 08:33:46;;;;;;;3.90;3.70;;;27.20;87.30;;;;;;4978908;28;20454;-70
2021/09/19 08:36:14;;;;;;;4.10;3.90;;;27.00;90.00;;;;;;4978838;28;20510;-69
2021/09/19 08:38:41;;;;;;;4.80;4.40;;;27.10;87.30;;;;;;4978587;28;20451;-68
2021/09/19 08:41:08;;;;;;;4.80;4.53;;;27.20;86.00;;;;;;4978819;28;20538;-69
2021/09/19 08:43:34;;;;;;;3.90;3.70;;;27.50;84.80;;;;;;4979010;28;20461;-69
2021/09/19 08:46:02;;;;;;;4.10;3.90;;;28.10;85.40;;;;;;4978839;28;20832;-70
2021/09/19 08:48:32;;;;;;;4.80;4.40;;;28.50;85.10;;;;;;4979904;28;20459;-68
2021/09/19 08:50:59;;;;;;;4.53;4.27;;;29.20;81.70;;;;;;4979137;28;20478;-68
2021/09/19 08:53:28;;;;;;;3.20;3.10;;;29.90;79.40;;;;;;4980376;28;20458;-68
2021/09/19 08:55:55;;;;;;;4.20;4.00;;;30.40;76.70;;;;;;4977691;28;20851;-69
2021/09/19 08:58:22;;;;;;;4.10;3.90;;;30.40;74.90;;;;;;4978046;28;20839;-68
2021/09/19 09:00:49;;;;;;;4.00;3.80;;;30.10;74.70;;;;;;4978483;28;20487;-68
2021/09/19 09:03:17;;;;;;;4.20;3.90;;;30.30;71.90;;;;;;4978275;28;20474;-68
2021/09/19 09:05:44;;;;;;;3.63;3.43;;;29.50;73.30;;;;;;4978061;28;20454;-66
2021/09/19 09:08:13;;;;;;;5.13;4.30;;;29.40;77.90;;;;;;4978360;28;20463;-66
2021/09/19 09:10:42;;;;;;;4.03;3.73;;;30.20;72.10;;;;;;4977971;28;20474;-66
2021/09/19 09:13:11;;;;;;;4.03;3.73;;;31.10;71.20;;;;;;4977839;28;20458;-65
2021/09/19 09:15:41;;;;;;;4.20;4.00;;;30.80;72.90;;;;;;4978244;28;20489;-66
2021/09/19 09:18:08;;;;;;;4.50;4.20;;;30.60;69.70;;;;;;4978320;28;20950;-66
2021/09/19 09:20:53;;;;;;;5.33;4.97;;;30.80;70.70;;;;;;4978093;28;20870;-65
2021/09/19 09:23:34;;;;;;;4.43;4.17;;;30.90;69.90;;;;;;4978698;28;20447;-65
2021/09/19 09:26:24;;;;;;;4.63;4.33;;;30.70;68.00;;;;;;4978156;28;20454;-65
2021/09/19 09:28:54;;;;;;;4.27;3.97;;;30.40;70.70;;;;;;4977916;28;20438;-66
2021/09/19 09:31:33;;;;;;;3.97;3.70;;;29.70;70.40;;;;;;4978023;28;20479;-65
2021/09/19 09:34:06;;;;;;;3.83;3.70;;;30.70;71.60;;;;;;4977569;28;20438;-66
2021/09/19 09:36:35;;;;;;;4.17;3.97;;;30.80;68.50;;;;;;4977688;28;20443;-65
2021/09/19 09:39:20;;;;;;;5.73;3.97;;;30.90;68.50;;;;;;4978091;28;20454;-65
2021/09/19 09:41:49;;;;;;;3.73;3.53;;;31.60;71.00;;;;;;4977630;28;20549;-66
2021/09/19 09:44:35;;;;;;;4.50;4.10;;;32.00;70.10;;;;;;4977825;28;20825;-66
2021/09/19 09:47:06;;;;;;;3.63;3.53;;;31.90;65.70;;;;;;4977361;28;20497;-67
2021/09/19 09:49:44;;;;;;;3.80;3.60;;;32.00;68.30;;;;;;4987396;28;20443;-67
2021/09/19 09:52:13;;;;;;;4.33;4.13;;;32.20;64.10;;;;;;4981277;28;20474;-68
2021/09/19 09:54:41;;;;;;;3.80;3.60;;;31.80;63.10;;;;;;4977337;28;20485;-67
2021/09/19 09:57:11;;;;;;;3.50;3.30;;;32.50;63.20;;;;;;4976699;28;20462;-66
2021/09/19 09:59:38;;;;;;;3.40;3.30;;;33.40;65.10;;;;;;4977345;28;20450;-66
2021/09/19 10:02:06;;;;;;;3.73;3.63;;;33.90;63.60;;;;;;4976970;28;20498;-66
2021/09/19 10:04:32;;;;;;;4.23;3.93;;;33.30;58.20;;;;;;4977937;28;20463;-64
2021/09/19 10:06:59;;;;;;;3.17;3.07;;;32.00;59.40;;;;;;4976520;28;20454;-65
2021/09/19 10:09:27;;;;;;;3.70;3.50;;;32.20;63.60;;;;;;4977208;28;20462;-65
2021/09/19 10:11:55;;;;;;;4.57;4.17;;;31.70;60.70;;;;;;4976706;28;20478;-65
2021/09/19 10:14:23;;;;;;;4.13;3.90;;;31.90;63.30;;;;;;4977035;28;20558;-65
2021/09/19 10:16:50;;;;;;;4.07;3.87;;;31.40;62.40;;;;;;4977269;28;20455;-65
2021/09/19 10:19:20;;;;;;;3.70;3.50;;;31.00;63.90;;;;;;4976612;28;20459;-65
2021/09/19 10:21:49;;;;;;;4.27;3.87;;;31.70;65.20;;;;;;4976345;28;20502;-64
2021/09/19 10:24:17;;;;;;;3.70;3.50;;;31.80;63.90;;;;;;4976303;28;20459;-65
2021/09/19 10:26:52;;;;;;;4.43;4.03;;;30.90;64.50;;;;;;4978400;28;20454;-65
2021/09/19 10:29:19;;;;;;;4.60;3.90;;;31.10;64.10;;;;;;4977021;28;20454;-65
2021/09/19 10:31:48;;;;;;;3.60;3.37;;;32.50;62.30;;;;;;4976729;28;20986;-64
2021/09/19 10:34:27;;;;;;;3.80;3.70;;;32.50;65.30;;;;;;4976660;28;20457;-66
2021/09/19 10:36:55;;;;;;;4.10;3.90;;;32.20;63.60;;;;;;4976987;28;20801;-65
2021/09/19 10:39:36;;;;;;;4.73;4.33;;;32.30;61.90;;;;;;4976699;28;20553;-65
2021/09/19 10:42:28;;;;;;;4.20;3.90;;;32.20;60.70;;;;;;4976954;28;20467;-65
2021/09/19 10:45:14;;;;;;;3.33;3.13;;;31.20;63.50;;;;;;4978214;28;20435;-64
2021/09/19 10:47:48;;;;;;;3.13;3.00;;;31.50;64.00;;;;;;4981048;28;20441;-66
2021/09/19 10:50:21;;;;;;;3.80;3.50;;;31.80;64.10;;;;;;4976289;28;20439;-65
2021/09/19 10:52:50;;;;;;;4.30;4.10;;;31.00;65.80;;;;;;4976148;28;20475;-65
2021/09/19 10:55:23;;;;;;;3.60;3.40;;;30.90;66.80;;;;;;4976008;28;20485;-65
2021/09/19 10:58:11;;;;;;;4.83;4.43;;;30.90;69.20;;;;;;4975621;28;20463;-65
2021/09/19 11:00:39;;;;;;;4.13;3.90;;;30.50;66.20;;;;;;4975231;28;20847;-65
2021/09/19 11:03:09;;;;;;;3.60;3.40;;;30.00;66.90;;;;;;4975769;28;20494;-65
2021/09/19 11:05:38;;;;;;;4.00;3.80;;;29.50;69.70;;;;;;4975877;28;20547;-65
2021/09/19 11:08:14;;;;;;;4.93;4.70;;;28.10;69.30;;;;;;4976879;28;20454;-65
2021/09/19 11:11:18;;;;;;;4.30;4.00;;;27.10;74.80;;;;;;4976596;28;20843;-65
2021/09/19 11:13:48;;;;;;;5.00;4.77;;;27.10;76.30;;;;;;4975211;28;20446;-64
2021/09/19 11:16:24;;;;;;;5.70;5.30;;;27.00;76.70;;;;;;4976049;28;20982;-65
2021/09/19 11:18:53;;;;;;;5.70;5.10;;;26.90;76.90;;;;;;4976055;28;20447;-65
2021/09/19 11:21:31;;;;;;;4.90;4.60;;;26.60;78.50;;;;;;4992324;28;20470;-66
2021/09/19 11:24:01;;;;;;;4.40;4.20;;;26.80;82.70;;;;;;4976850;28;20442;-65
2021/09/19 11:26:30;;;;;;;4.73;4.43;;;26.60;79.90;;;;;;4975580;28;20450;-65
2021/09/19 11:28:59;;;;;;;5.07;4.77;;;26.30;82.00;;;;;;4975884;28;20458;-64
2021/09/19 11:31:27;;;;;;;4.73;4.43;;;26.30;81.50;;;;;;4975905;28;20479;-64
2021/09/19 11:33:55;;;;;;;5.70;5.40;;;25.90;81.50;;;;;;4976676;28;20454;-65
2021/09/19 11:36:22;;;;;;;5.60;5.20;;;25.50;85.20;;;;;;4976289;28;20493;-65
2021/09/19 11:38:51;;;;;;;4.70;4.50;;;25.50;83.70;;;;;;4976248;28;20454;-65
2021/09/19 11:41:19;;;;;;;5.37;4.97;;;25.30;87.70;;;;;;4976046;28;20569;-68
2021/09/19 11:43:47;;;;;;;6.00;5.60;;;25.60;86.30;;;;;;4975590;28;20454;-68
2021/09/19 11:46:16;;;;;;;5.87;5.37;;;25.50;87.70;;;;;;4975957;28;20455;-68
2021/09/19 11:48:44;;;;;;;4.70;4.40;;;25.80;85.60;;;;;;4975706;28;20942;-68
2021/09/19 11:51:15;;;;;;;5.23;4.93;;;26.10;87.90;;;;;;4975457;28;21005;-67
2021/09/19 11:53:43;;;;;;;5.90;5.30;;;26.10;84.50;;;;;;4975152;28;20443;-67
2021/09/19 11:56:10;;;;;;;5.27;4.87;;;25.50;84.00;;;;;;4975523;28;20574;-68
2021/09/19 11:58:37;;;;;;;6.33;5.93;;;25.40;87.30;;;;;;4975865;28;20455;-68
2021/09/19 12:01:05;;;;;;;5.60;5.30;;;25.40;86.60;;;;;;4974849;28;21003;-68
2021/09/19 12:03:32;;;;;;;5.90;5.50;;;25.30;87.00;;;;;;4975349;28;20459;-67
2021/09/19 12:06:00;;;;;;;6.30;5.80;;;25.30;89.10;;;;;;4975076;28;20454;-67
2021/09/19 12:08:30;;;;;;;6.70;6.30;;;25.40;86.20;;;;;;4975112;28;20537;-68
2021/09/19 12:10:59;;;;;;;5.67;5.27;;;25.30;84.40;;;;;;4975247;28;20481;-66
2021/09/19 12:13:29;;;;;;;7.37;5.20;;;24.90;84.90;;;;;;4977060;28;20858;-66
2021/09/19 12:16:01;;;;;;;5.60;5.20;;;24.80;88.10;;;;;;4976417;28;20478;-66
2021/09/19 12:18:29;;;;;;;6.33;5.93;;;24.70;90.40;;;;;;4976123;28;20545;-67
2021/09/19 12:21:00;;;;;;;5.60;5.23;;;24.50;87.60;;;;;;4975667;28;20478;-66
2021/09/19 12:23:32;;;;;;;5.77;5.47;;;24.10;89.90;;;;;;4977039;28;20446;-66
2021/09/19 12:25:59;;;;;;;6.43;5.93;;;24.10;90.70;;;;;;4977405;28;20446;-66
2021/09/19 12:28:33;;;;;;;5.80;5.40;;;24.30;91.00;;;;;;4977238;28;20461;-67
2021/09/19 12:31:01;;;;;;;5.93;5.53;;;24.70;90.90;;;;;;4977332;28;20477;-67
2021/09/19 12:33:28;;;;;;;6.77;6.27;;;25.00;91.00;;;;;;4978690;28;20812;-67
2021/09/19 12:35:55;;;;;;;6.97;6.50;;;25.00;90.60;;;;;;4980356;28;20470;-67
2021/09/19 12:38:25;;;;;;;5.37;5.03;;;25.00;90.40;;;;;;4980633;28;20455;-67
2021/09/19 12:41:01;;;;;;;5.10;4.80;;;24.90;90.10;;;;;;4980850;28;20481;-67
2021/09/19 12:43:30;;;;;;;6.43;6.03;;;24.70;91.00;;;;;;4980129;28;20832;-67
2021/09/19 12:45:56;;;;;;;4.60;4.30;;;24.30;91.00;;;;;;4980336;28;20509;-67
2021/09/19 12:48:24;;;;;;;5.77;5.37;;;24.20;91.70;;;;;;4980459;28;20463;-67
2021/09/19 12:50:56;;;;;;;6.20;5.80;;;23.90;91.90;;;;;;4980948;28;20485;-67
2021/09/19 12:53:24;;;;;;;6.70;6.20;;;23.50;92.70;;;;;;4993793;28;20451;-67
2021/09/19 12:55:52;;;;;;;5.70;5.40;;;23.40;93.90;;;;;;4982012;28;20570;-68
2021/09/19 12:58:19;;;;;;;6.63;6.23;;;23.50;94.90;;;;;;4980259;28;20462;-67
2021/09/19 13:00:47;;;;;;;6.57;6.03;;;23.80;93.60;;;;;;4979703;28;20490;-68
2021/09/19 13:03:14;;;;;;;5.70;5.30;;;24.10;93.80;;;;;;4980299;28;20486;-67
2021/09/19 13:05:42;;;;;;;5.07;4.77;;;24.60;94.30;;;;;;4980281;28;20455;-67
2021/09/19 13:08:08;;;;;;;5.97;5.47;;;24.90;92.70;;;;;;4990363;28;20458;-67
2021/09/19 13:10:35;;;;;;;5.20;4.80;;;25.20;92.20;;;;;;4993637;28;20482;-67
2021/09/19 13:13:03;;;;;;;5.83;5.43;;;25.30;91.50;;;;;;4995584;28;20462;-67
2021/09/19 13:15:30;;;;;;;5.60;5.20;;;25.20;90.50;;;;;;4990937;28;20474;-66
2021/09/19 13:17:57;;;;;;;5.50;5.20;;;24.80;91.00;;;;;;4994931;28;20466;-67
2021/09/19 13:20:24;;;;;;;6.13;5.63;;;24.40;91.90;;;;;;4979908;28;20862;-67
2021/09/19 13:22:51;;;;;;;6.30;5.90;;;24.10;91.60;;;;;;4979689;28;20462;-67
2021/09/19 13:25:18;;;;;;;5.90;5.40;;;23.70;93.70;;;;;;4981738;28;20481;-67
2021/09/19 13:27:46;;;;;;;6.30;5.70;;;23.60;92.80;;;;;;4985333;28;20463;-68
2021/09/19 13:30:15;;;;;;;5.90;5.60;;;23.60;93.20;;;;;;4978961;28;20455;-68
2021/09/19 13:32:42;;;;;;;5.30;5.00;;;24.00;92.50;;;;;;4980370;28;20454;-67
2021/09/19 13:35:10;;;;;;;6.60;5.37;;;24.20;93.80;;;;;;4990441;28;20458;-68
2021/09/19 13:37:37;;;;;;;5.03;4.73;;;24.40;92.80;;;;;;4986731;28;20463;-68
2021/09/19 13:40:05;;;;;;;5.50;5.20;;;24.70;92.30;;;;;;4984750;28;20475;-67
2021/09/19 13:42:32;;;;;;;4.87;4.60;;;24.80;92.30;;;;;;4982495;28;20881;-68
2021/09/19 13:44:59;;;;;;;5.00;4.70;;;24.70;91.80;;;;;;4978816;28;20459;-67
2021/09/19 13:47:27;;;;;;;5.70;5.10;;;24.60;92.70;;;;;;4978576;28;20454;-67
2021/09/19 13:49:53;;;;;;;5.77;5.37;;;24.80;92.40;;;;;;4978002;28;20458;-67
2021/09/19 13:52:20;;;;;;;5.70;5.40;;;25.00;92.40;;;;;;4977809;28;20482;-67
2021/09/19 13:54:47;;;;;;;5.67;5.37;;;25.10;91.60;;;;;;4977849;28;20457;-67
2021/09/19 13:57:14;;;;;;;5.47;5.17;;;25.00;91.80;;;;;;4978135;28;20482;-67
2021/09/19 13:59:40;;;;;;;4.83;4.57;;;25.00;91.10;;;;;;4977979;28;20466;-67
2021/09/19 14:02:07;;;;;;;4.37;4.17;;;24.70;91.80;;;;;;4977688;28;20486;-67
2021/09/19 14:04:35;;;;;;;4.63;4.37;;;24.90;91.40;;;;;;4978856;28;20466;-68
2021/09/19 14:07:03;;;;;;;5.30;4.97;;;25.10;92.90;;;;;;4977909;28;20509;-68
2021/09/19 14:09:29;;;;;;;5.07;4.67;;;25.40;90.50;;;;;;4977899;28;20459;-68
2021/09/19 14:11:56;;;;;;;5.30;4.90;;;25.40;90.10;;;;;;4979246;28;20478;-67
2021/09/19 14:14:23;;;;;;;4.90;4.60;;;25.60;89.40;;;;;;4978108;28;20503;-67
2021/09/19 14:16:50;;;;;;;5.10;4.80;;;25.70;89.30;;;;;;4977269;28;20990;-67
2021/09/19 14:19:20;;;;;;;4.97;4.67;;;25.80;87.80;;;;;;4978899;28;20453;-68
2021/09/19 14:21:48;;;;;;;5.03;4.83;;;25.60;88.30;;;;;;4979477;28;20485;-68
2021/09/19 14:24:14;;;;;;;4.50;4.20;;;25.40;89.20;;;;;;4989008;28;20465;-67
2021/09/19 14:26:41;;;;;;;5.60;5.20;;;25.50;90.00;;;;;;4987051;28;20447;-68
2021/09/19 14:29:08;;;;;;;19.87;18.37;;;25.30;90.10;;;;;;4978647;28;20457;-68
2021/09/19 14:31:35;;;;;;;12.30;11.43;;;24.80;91.00;;;;;;4979971;28;20814;-68
2021/09/19 14:34:01;;;;;;;4.87;4.57;;;24.60;91.30;;;;;;4981460;28;20462;-67
2021/09/19 14:36:28;;;;;;;5.30;4.90;;;24.40;91.50;;;;;;4982370;28;20485;-68
2021/09/19 14:38:56;;;;;;;4.97;4.60;;;24.10;91.80;;;;;;4982270;28;20465;-67
2021/09/19 14:41:23;;;;;;;5.10;4.70;;;23.90;92.50;;;;;;4979165;28;20471;-67
2021/09/19 14:43:49;;;;;;;4.23;3.93;;;23.80;91.80;;;;;;4981079;28;20935;-67
2021/09/19 14:46:16;;;;;;;5.97;4.30;;;23.60;93.20;;;;;;4980575;28;20789;-67
2021/09/19 14:48:43;;;;;;;4.30;4.00;;;23.50;92.90;;;;;;4979318;28;20455;-67
2021/09/19 14:51:09;;;;;;;5.67;5.27;;;23.50;93.80;;;;;;4976606;28;20478;-68
2021/09/19 14:53:36;;;;;;;5.17;4.87;;;23.40;93.60;;;;;;4977331;28;20454;-67
2021/09/19 14:56:05;;;;;;;5.27;4.97;;;23.50;93.40;;;;;;4976548;28;20489;-67
2021/09/19 14:58:32;;;;;;;4.83;4.60;;;23.50;93.00;;;;;;4976339;28;20458;-67
2021/09/19 15:00:58;;;;;;;4.27;4.07;;;23.50;93.40;;;;;;4975383;28;20487;-68
2021/09/19 15:03:25;;;;;;;8.90;5.20;;;23.60;93.30;;;;;;4975877;28;20455;-67
2021/09/19 15:05:52;;;;;;;4.43;4.07;;;23.60;92.30;;;;;;4975794;28;20455;-67
2021/09/19 15:08:19;;;;;;;5.60;5.20;;;23.50;92.50;;;;;;4975767;28;20454;-67
2021/09/19 15:10:46;;;;;;;5.03;4.73;;;23.30;93.00;;;;;;4976131;28;20479;-67
2021/09/19 15:13:14;;;;;;;4.87;4.57;;;23.30;94.00;;;;;;4976255;28;20877;-67
2021/09/19 15:15:41;;;;;;;4.57;4.30;;;23.30;93.50;;;;;;4976683;28;20462;-67
2021/09/19 15:18:09;;;;;;;5.30;5.00;;;23.30;92.90;;;;;;4976452;28;20454;-67
2021/09/19 15:20:36;;;;;;;5.27;4.97;;;23.20;92.80;;;;;;4975878;28;20474;-67
2021/09/19 15:23:02;;;;;;;4.77;4.47;;;23.20;92.70;;;;;;4975876;28;20454;-67
2021/09/19 15:25:29;;;;;;;4.17;3.87;;;23.00;92.90;;;;;;4975927;28;20455;-67
2021/09/19 15:27:56;;;;;;;4.83;4.53;;;22.90;93.50;;;;;;4976167;28;20451;-67
2021/09/19 15:30:24;;;;;;;5.93;5.53;;;22.60;94.10;;;;;;4976782;28;20451;-67
2021/09/19 15:32:51;;;;;;;5.47;5.07;;;22.40;94.10;;;;;;4976230;28;20469;-67
2021/09/19 15:35:18;;;;;;;5.53;5.17;;;22.20;94.90;;;;;;4975764;28;20906;-66
2021/09/19 15:37:45;;;;;;;4.37;4.07;;;22.20;94.80;;;;;;4975318;28;21000;-68
2021/09/19 15:40:21;;;;;;;4.70;4.50;;;22.10;95.60;;;;;;4975812;28;20465;-67
2021/09/19 15:42:50;;;;;;;4.33;4.13;;;21.90;95.60;;;;;;4975567;28;20449;-67
2021/09/19 15:45:18;;;;;;;5.30;4.80;;;21.90;95.80;;;;;;4975925;28;20549;-68
2021/09/19 15:47:46;;;;;;;4.80;4.50;;;21.80;95.80;;;;;;4975588;28;20455;-67
2021/09/19 15:50:13;;;;;;;5.47;5.17;;;21.70;96.60;;;;;;4976093;28;20454;-67
2021/09/19 15:52:42;;;;;;;4.80;4.50;;;21.50;97.00;;;;;;4976188;28;20491;-66
2021/09/19 15:55:11;;;;;;;4.57;4.37;;;21.40;97.70;;;;;;4981765;28;20430;-67
2021/09/19 15:57:40;;;;;;;5.47;5.10;;;21.30;97.20;;;;;;4987656;28;20807;-67
2021/09/19 16:00:08;;;;;;;4.10;3.90;;;21.00;97.20;;;;;;4975450;28;20942;-67
2021/09/19 16:02:35;;;;;;;5.03;4.73;;;20.80;98.00;;;;;;4980378;28;20473;-67
2021/09/19 16:05:04;;;;;;;6.13;4.53;;;20.70;98.20;;;;;;4984808;28;20447;-67
2021/09/19 16:07:31;;;;;;;4.67;4.37;;;20.60;98.50;;;;;;4980045;28;20450;-67
2021/09/19 16:09:58;;;;;;;4.47;4.20;;;20.60;98.60;;;;;;4979588;28;20447;-68
2021/09/19 16:12:24;;;;;;;4.70;4.30;;;20.50;99.20;;;;;;4979442;28;21012;-66
2021/09/19 16:14:51;;;;;;;5.00;4.67;;;20.40;99.70;;;;;;4979528;28;20455;-67
2021/09/19 16:17:18;;;;;;;4.77;4.47;;;20.40;99.90;;;;;;4982064;28;20474;-67
2021/09/19 16:19:44;;;;;;;4.90;4.70;;;20.30;99.90;;;;;;4982545;28;20465;-67
2021/09/19 16:22:12;;;;;;;5.10;4.80;;;20.30;99.90;;;;;;4982239;28;20474;-67
2021/09/19 16:24:39;;;;;;;5.10;4.70;;;20.20;99.90;;;;;;4981294;28;20469;-67
2021/09/19 16:27:06;;;;;;;5.27;4.87;;;20.10;99.90;;;;;;4979204;28;20501;-67
2021/09/19 16:29:33;;;;;;;5.70;5.20;;;20.10;99.90;;;;;;4979551;28;20466;-67
2021/09/19 16:32:00;;;;;;;5.30;5.00;;;20.00;99.90;;;;;;4978777;28;20502;-66
2021/09/19 16:34:27;;;;;;;4.90;4.60;;;20.00;99.90;;;;;;4978858;28;20473;-67
2021/09/19 16:36:53;;;;;;;5.07;4.70;;;19.90;99.90;;;;;;4981532;28;20478;-67
2021/09/19 16:39:21;;;;;;;5.47;5.00;;;19.90;99.90;;;;;;4979389;28;20460;-67
2021/09/19 16:41:48;;;;;;;5.83;5.33;;;19.90;99.90;;;;;;4978671;28;20470;-68
2021/09/19 16:44:15;;;;;;;5.37;5.07;;;19.80;99.90;;;;;;4980820;28;20466;-68
2021/09/19 16:46:41;;;;;;;5.00;4.70;;;19.80;99.90;;;;;;4980748;28;20461;-68
2021/09/19 16:49:08;;;;;;;5.10;4.80;;;19.70;99.90;;;;;;4978197;28;20876;-67
2021/09/19 16:51:37;;;;;;;4.97;4.67;;;19.70;99.90;;;;;;4979090;28;20541;-67